National Weather Service Raw Text Product

Displaying AFOS PIL: TAFOTM Received: 2018-02-09 18:15 UTC


143 
FTUS43 KDMX 091815 AAA
TAFOTM
TAF AMD
KOTM 091815Z 0918/1018 01012KT P6SM VCSH OVC035
      TEMPO 0918/0920 1SM -SN BKN015
     FM092200 01010KT P6SM OVC035
     FM100300 01010KT P6SM VCSH OVC040
     FM100400 01010KT 2SM -SN OVC035
     FM100600 36011KT 3/4SM -SN OVC020
     FM101000 36008KT P6SM -SN OVC025
     FM101200 36009KT P6SM OVC035=